createdAt,value
2022-10-17T00:04:07.202Z,100723.03
2022-10-17T00:11:02.233Z,100730.50
2022-10-17T00:26:52.130Z,100769.22
2022-10-17T00:51:24.574Z,100800.56
2022-10-17T00:53:52.775Z,100797.03
2022-10-17T00:56:20.917Z,100783.56
2022-10-17T00:58:49.037Z,100800.72
2022-10-17T01:01:17.151Z,100811.81
2022-10-17T01:03:45.227Z,100810.72
2022-10-17T01:06:13.229Z,100825.91
2022-10-17T01:08:42.636Z,100819.25
2022-10-17T01:11:17.257Z,100823.97
2022-10-17T01:13:50.356Z,100823.78
2022-10-17T01:16:19.855Z,100827.31
2022-10-17T01:18:53.944Z,100841.72
2022-10-17T01:21:47.846Z,100845.41
2022-10-17T01:24:38.238Z,100837.19
2022-10-17T01:27:27.552Z,100855.56
2022-10-17T01:30:44.673Z,100855.66
2022-10-17T01:33:15.286Z,100859.56
2022-10-17T01:35:46.626Z,100848.72
2022-10-17T01:38:17.138Z,100855.22
2022-10-17T01:40:47.618Z,100864.09
2022-10-17T01:43:18.611Z,100847.97
2022-10-17T01:45:48.758Z,100871.34
2022-10-17T01:48:20.233Z,100875.53
2022-10-17T01:50:49.802Z,100882.53
2022-10-17T01:53:20.213Z,100879.22
2022-10-17T01:55:48.543Z,100887.44
2022-10-17T01:58:21.541Z,100878.09
2022-10-17T02:00:49.593Z,100869.31
2022-10-17T02:03:20.331Z,100885.66
2022-10-17T02:05:48.393Z,100859.53
2022-10-17T02:08:25.591Z,100884.00
2022-10-17T02:10:56.349Z,100864.78
2022-10-17T02:13:28.569Z,100890.28
2022-10-17T02:16:02.575Z,100890.00
2022-10-17T02:18:53.772Z,100902.00
2022-10-17T02:21:25.343Z,100897.56
2022-10-17T02:23:55.994Z,100888.59
2022-10-17T02:26:27.221Z,100901.34
2022-10-17T02:29:00.135Z,100896.44
2022-10-17T02:31:29.861Z,100886.13
2022-10-17T02:34:00.361Z,100892.28
2022-10-17T02:36:30.410Z,100889.06
2022-10-17T02:38:59.805Z,100889.72
2022-10-17T02:44:02.482Z,100867.72
2022-10-17T02:46:30.873Z,100892.75
2022-10-17T02:49:02.303Z,100891.47
2022-10-17T02:51:36.645Z,100897.53
2022-10-17T02:54:07.153Z,100911.56
2022-10-17T02:56:40.036Z,100899.91
2022-10-17T02:59:08.089Z,100891.59
2022-10-17T03:01:36.694Z,100913.59
2022-10-17T03:04:08.549Z,100916.00
2022-10-17T03:06:36.977Z,100914.03
2022-10-17T03:09:05.189Z,100922.41
2022-10-17T03:11:33.279Z,100917.44
2022-10-17T03:14:04.317Z,100923.97
2022-10-17T03:16:33.532Z,100927.66
2022-10-17T03:19:01.680Z,100926.19
2022-10-17T03:21:31.283Z,100918.06
2022-10-17T03:23:59.466Z,100934.91
2022-10-17T03:26:27.548Z,100936.84
2022-10-17T03:28:55.680Z,100914.56
2022-10-17T03:31:24.701Z,100921.44
2022-10-17T03:33:53.714Z,100936.78
2022-10-17T03:36:21.803Z,100939.16
2022-10-17T03:38:54.686Z,100945.56
2022-10-17T03:41:23.501Z,100952.44
2022-10-17T03:43:53.410Z,100950.78
2022-10-17T03:46:21.856Z,100964.31
2022-10-17T03:48:50.108Z,100961.34
2022-10-17T03:51:18.067Z,100956.34
2022-10-17T03:53:52.706Z,100978.56
2022-10-17T03:56:22.111Z,100976.41
2022-10-17T03:58:58.825Z,100987.13
2022-10-17T04:01:28.266Z,100985.91
2022-10-17T04:03:57.360Z,100994.44
2022-10-17T04:06:28.401Z,100990.41
2022-10-17T04:08:57.784Z,100993.75
2022-10-17T04:11:36.211Z,100996.09
2022-10-17T04:14:05.069Z,101000.22
2022-10-17T04:16:33.260Z,101004.41
2022-10-17T04:19:04.628Z,101006.72
2022-10-17T04:21:38.471Z,100999.75
2022-10-17T04:24:11.421Z,101016.44
2022-10-17T04:27:04.761Z,101016.09
2022-10-17T04:29:35.119Z,101027.81
2022-10-17T04:32:08.513Z,101034.16
2022-10-17T04:34:50.086Z,101038.50
2022-10-17T04:37:19.703Z,101043.84
2022-10-17T04:39:51.118Z,101050.03
2022-10-17T04:42:19.707Z,101059.06
2022-10-17T04:44:48.101Z,101066.09
2022-10-17T04:47:18.801Z,101058.59
2022-10-17T04:49:47.701Z,101072.97
2022-10-17T04:52:17.358Z,101079.47
2022-10-17T04:54:46.920Z,101091.69
2022-10-17T04:57:16.997Z,101086.31
2022-10-17T04:59:53.149Z,101098.69
2022-10-17T05:02:30.167Z,101105.06
2022-10-17T05:04:58.858Z,101103.34
2022-10-17T05:07:27.020Z,101115.75
2022-10-17T05:09:54.988Z,101118.44
2022-10-17T05:12:25.796Z,101126.44
2022-10-17T05:14:54.963Z,101130.13
2022-10-17T05:17:25.649Z,101123.78
2022-10-17T05:19:54.104Z,101146.16
2022-10-17T05:22:22.151Z,101146.84
2022-10-17T05:24:50.450Z,101157.19
2022-10-17T05:27:18.585Z,101134.66
2022-10-17T05:29:48.045Z,101159.56
2022-10-17T05:32:24.756Z,101163.56
2022-10-17T05:34:55.243Z,101153.22
2022-10-17T05:37:25.100Z,101155.91
2022-10-17T05:39:56.105Z,101165.44
2022-10-17T05:42:25.243Z,101181.97
2022-10-17T05:44:54.914Z,101170.28
2022-10-17T05:47:23.225Z,101172.63
2022-10-17T05:49:52.815Z,101197.38
2022-10-17T05:52:38.829Z,101191.66
2022-10-17T05:55:12.045Z,101209.38
2022-10-17T05:57:40.990Z,101211.56
2022-10-17T06:00:15.988Z,101223.75
2022-10-17T06:02:45.969Z,101195.69
2022-10-17T06:05:15.920Z,101217.72
2022-10-17T06:07:44.603Z,101224.75
2022-10-17T06:10:16.384Z,101213.41
2022-10-17T06:12:44.577Z,101230.78
2022-10-17T06:15:12.671Z,101218.91
2022-10-17T06:17:45.932Z,101220.41
2022-10-17T06:20:14.009Z,101241.44
2022-10-17T06:22:41.999Z,101224.75
2022-10-17T06:25:16.031Z,101251.78
2022-10-17T06:27:44.031Z,101256.47
2022-10-17T06:30:13.000Z,101252.47
2022-10-17T06:32:41.086Z,101263.16
2022-10-17T06:35:10.978Z,101271.47
2022-10-17T06:37:39.576Z,101267.09
2022-10-17T06:40:12.343Z,101279.63
2022-10-17T06:42:41.251Z,101278.75
2022-10-17T06:45:26.215Z,101285.78
2022-10-17T06:48:30.042Z,101280.91
2022-10-17T06:51:18.365Z,101301.81
2022-10-17T06:53:50.947Z,101302.13
2022-10-17T06:56:35.166Z,101298.44
2022-10-17T06:59:32.481Z,101315.50
2022-10-17T07:02:12.750Z,101330.41
2022-10-17T07:04:40.865Z,101319.34
2022-10-17T07:07:10.251Z,101337.06
2022-10-17T07:09:38.706Z,101348.59
2022-10-17T07:12:08.538Z,101332.50
2022-10-17T07:14:37.047Z,101358.25
2022-10-17T07:17:07.029Z,101370.09
2022-10-17T07:19:35.171Z,101379.63
2022-10-17T07:22:03.648Z,101388.66
2022-10-17T07:24:34.887Z,101390.31
2022-10-17T07:27:15.077Z,101396.50
2022-10-17T07:29:43.438Z,101397.34
2022-10-17T07:32:22.421Z,101389.09
2022-10-17T07:34:50.756Z,101418.81
2022-10-17T07:37:19.330Z,101425.88
2022-10-17T07:39:56.590Z,101441.78
2022-10-17T07:42:24.916Z,101433.09
2022-10-17T07:44:54.827Z,101455.91
2022-10-17T07:47:23.943Z,101458.59
2022-10-17T07:49:53.363Z,101461.63
2022-10-17T07:52:21.434Z,101462.47
2022-10-17T07:54:49.425Z,101466.50
2022-10-17T07:57:19.538Z,101467.16
2022-10-17T07:59:48.057Z,101476.56
2022-10-17T08:02:18.886Z,101496.66
2022-10-17T08:04:46.908Z,101477.91
2022-10-17T08:07:22.034Z,101498.66
2022-10-17T08:09:51.753Z,101520.06
2022-10-17T08:12:23.499Z,101513.34
2022-10-17T08:14:52.944Z,101516.03
2022-10-17T08:17:21.730Z,101535.78
2022-10-17T08:19:49.696Z,101531.28
2022-10-17T08:22:17.749Z,101538.84
2022-10-17T08:24:46.370Z,101541.19
2022-10-17T08:27:14.489Z,101553.13
2022-10-17T08:29:44.013Z,101553.31
2022-10-17T08:32:12.081Z,101559.69
2022-10-17T08:34:40.057Z,101575.09
2022-10-17T08:37:08.186Z,101561.34
2022-10-17T08:39:36.294Z,101569.25
2022-10-17T08:42:28.922Z,101573.47
2022-10-17T08:45:00.745Z,101574.28
2022-10-17T08:47:29.854Z,101591.88
2022-10-17T08:49:59.098Z,101591.06
2022-10-17T08:52:33.854Z,101594.44
2022-10-17T08:55:01.829Z,101593.25
2022-10-17T08:57:30.058Z,101581.53
2022-10-17T08:59:59.925Z,101588.25
2022-10-17T09:02:40.889Z,101582.88
2022-10-17T09:05:30.462Z,101603.13
2022-10-17T09:08:04.106Z,101601.34
2022-10-17T09:10:36.808Z,101615.06
2022-10-17T09:13:11.441Z,101617.44
2022-10-17T09:15:50.762Z,101614.22
2022-10-17T09:18:21.939Z,101613.91
2022-10-17T09:20:52.926Z,101633.84
2022-10-17T09:23:22.525Z,101627.63
2022-10-17T09:25:51.896Z,101622.06
2022-10-17T09:28:22.435Z,101624.03
2022-10-17T09:30:55.537Z,101636.59
2022-10-17T09:33:35.443Z,101641.28
2022-10-17T09:36:18.483Z,101651.84
2022-10-17T09:38:49.368Z,101630.66
2022-10-17T09:41:43.545Z,101638.63
2022-10-17T09:44:18.701Z,101652.03
2022-10-17T09:46:58.996Z,101666.59
2022-10-17T09:49:30.991Z,101652.03
2022-10-17T09:51:59.023Z,101669.56
2022-10-17T09:54:30.411Z,101670.06
2022-10-17T09:56:59.917Z,101671.97
2022-10-17T09:59:32.773Z,101678.59
2022-10-17T10:02:21.963Z,101690.25
2022-10-17T10:05:09.555Z,101677.38
2022-10-17T10:07:40.119Z,101671.59
2022-10-17T10:10:10.015Z,101699.59
2022-10-17T10:12:41.905Z,101689.88
2022-10-17T10:15:34.614Z,101698.13
2022-10-17T10:18:04.394Z,101715.59
2022-10-17T10:20:37.779Z,101704.84
2022-10-17T10:23:15.996Z,101708.66
2022-10-17T10:25:55.665Z,101717.53
2022-10-17T10:28:29.998Z,101734.56
2022-10-17T10:30:59.073Z,101740.63
2022-10-17T10:33:29.207Z,101744.31
2022-10-17T10:36:05.580Z,101735.22
2022-10-17T10:38:34.648Z,101721.66
2022-10-17T10:41:08.559Z,101729.00
2022-10-17T10:43:37.867Z,101759.63
2022-10-17T10:46:07.771Z,101739.91
2022-10-17T10:48:37.688Z,101775.28
2022-10-17T10:51:06.567Z,101756.81
2022-10-17T10:53:43.039Z,101784.16
2022-10-17T10:56:14.528Z,101793.59
2022-10-17T10:58:48.807Z,101774.63
2022-10-17T11:01:20.367Z,101784.31
2022-10-17T11:03:57.478Z,101801.69
2022-10-17T11:06:28.785Z,101796.34
2022-10-17T11:09:07.351Z,101806.00
2022-10-17T11:11:41.315Z,101816.22
2022-10-17T11:14:13.823Z,101826.31
2022-10-17T11:16:46.144Z,101818.91
2022-10-17T11:19:18.642Z,101833.81
2022-10-17T11:21:48.750Z,101842.63
2022-10-17T11:24:22.817Z,101827.25
2022-10-17T11:26:56.167Z,101809.13
2022-10-17T11:29:28.351Z,101832.31
2022-10-17T11:31:56.839Z,101835.69
2022-10-17T11:34:30.252Z,101830.50
2022-10-17T11:37:03.035Z,101842.75
2022-10-17T11:39:36.076Z,101841.75
2022-10-17T11:42:07.910Z,101861.56
2022-10-17T11:44:36.724Z,101872.31
2022-10-17T11:47:06.249Z,101871.97
2022-10-17T11:49:40.216Z,101890.13
2022-10-17T11:52:26.958Z,101877.38
2022-10-17T11:55:10.960Z,101881.72
2022-10-17T11:57:46.143Z,101891.75
2022-10-17T12:00:23.345Z,101895.22
2022-10-17T12:02:54.624Z,101889.97
2022-10-17T12:05:27.799Z,101876.53
2022-10-17T12:08:00.761Z,101899.13
2022-10-17T12:10:36.953Z,101904.41
2022-10-17T12:13:42.390Z,101917.72
2022-10-17T12:16:39.602Z,101919.31
2022-10-17T12:19:34.983Z,101915.28
2022-10-17T12:22:21.629Z,101905.88
2022-10-17T12:25:03.180Z,101911.94
2022-10-17T12:27:47.479Z,101908.94
2022-10-17T12:30:24.769Z,101921.38
2022-10-17T12:33:21.952Z,101919.69
2022-10-17T12:35:52.377Z,101915.31
2022-10-17T12:38:26.500Z,101923.00
2022-10-17T12:41:02.030Z,101892.97
2022-10-17T12:46:46.798Z,101914.59
2022-10-17T12:49:39.342Z,101922.34
2022-10-17T12:52:21.215Z,101914.59
2022-10-17T12:55:13.214Z,101926.00
2022-10-17T12:57:45.714Z,101915.91
2022-10-17T13:00:24.198Z,101921.44
2022-10-17T13:02:54.500Z,101922.28
2022-10-17T13:05:28.472Z,101932.34
2022-10-17T13:07:56.799Z,101919.88
2022-10-17T13:10:28.492Z,101929.94
2022-10-17T13:13:04.435Z,101932.94
2022-10-17T13:15:33.018Z,101938.69
2022-10-17T13:18:01.636Z,101931.66
2022-10-17T13:20:31.846Z,101932.66
2022-10-17T13:23:00.151Z,101945.75
2022-10-17T13:25:30.004Z,101941.88
2022-10-17T13:28:13.982Z,101943.22
2022-10-17T13:30:49.824Z,101945.94
2022-10-17T13:33:40.429Z,101952.31
2022-10-17T13:36:14.241Z,101949.47
2022-10-17T13:38:42.949Z,101955.69
2022-10-17T13:44:04.229Z,101952.81
2022-10-17T13:46:38.910Z,101947.78
2022-10-17T13:49:25.871Z,101954.47
2022-10-17T13:51:56.338Z,101969.16
2022-10-17T13:54:34.258Z,101963.56
2022-10-17T13:57:05.170Z,101947.44
2022-10-17T13:59:35.704Z,101963.56
2022-10-17T14:02:04.264Z,101939.06
2022-10-17T14:04:44.732Z,101942.09
2022-10-17T14:07:24.601Z,101958.88
2022-10-17T14:09:52.898Z,101971.28
2022-10-17T14:12:23.407Z,101961.91
2022-10-17T14:15:10.749Z,101948.47
2022-10-17T14:17:39.423Z,101949.78
2022-10-17T14:20:40.766Z,101969.97
2022-10-17T14:23:21.079Z,101976.69
2022-10-17T14:25:44.448Z,101976.34
2022-10-17T14:28:18.512Z,101967.13
2022-10-17T14:31:02.697Z,101977.06
2022-10-17T14:33:33.364Z,101964.63
2022-10-17T14:36:03.134Z,101986.75
2022-10-17T14:38:31.182Z,101991.28
2022-10-17T14:41:23.293Z,101985.25
2022-10-17T14:43:58.024Z,102010.31
2022-10-17T14:46:26.475Z,101999.19
2022-10-17T14:48:57.476Z,102001.88
2022-10-17T14:51:25.916Z,102004.25
2022-10-17T14:54:05.765Z,102009.25
2022-10-17T14:56:38.945Z,102018.16
2022-10-17T14:59:21.559Z,102017.69
2022-10-17T15:01:58.346Z,102025.41
2022-10-17T15:04:26.402Z,102015.69
2022-10-17T15:06:55.499Z,102030.78
2022-10-17T15:09:31.077Z,102017.06
2022-10-17T15:12:01.090Z,102034.34
2022-10-17T15:14:30.602Z,102023.44
2022-10-17T15:16:58.894Z,102040.91
2022-10-17T15:19:27.039Z,102028.81
2022-10-17T15:21:55.143Z,102041.56
2022-10-17T15:24:23.376Z,102041.56
2022-10-17T15:26:52.126Z,102031.84
2022-10-17T15:29:20.182Z,102040.38
2022-10-17T15:31:50.038Z,102052.09
2022-10-17T15:34:18.143Z,102050.13
2022-10-17T15:36:51.934Z,102047.22
2022-10-17T15:39:20.096Z,102053.28
2022-10-17T15:41:51.927Z,102054.63
2022-10-17T15:44:22.039Z,102024.94
2022-10-17T15:46:51.643Z,102054.91
2022-10-17T15:49:19.768Z,102044.56
2022-10-17T15:51:51.707Z,102058.94
2022-10-17T15:54:23.457Z,102065.09
2022-10-17T15:56:57.932Z,102078.28
2022-10-17T15:59:30.581Z,102077.50
2022-10-17T16:02:00.007Z,102073.91
2022-10-17T16:04:30.765Z,102080.78
2022-10-17T16:07:01.612Z,102086.13
2022-10-17T16:09:30.055Z,102079.13
2022-10-17T16:11:58.051Z,102087.44
2022-10-17T16:14:26.243Z,102090.28
2022-10-17T16:16:54.243Z,102079.88
2022-10-17T16:19:23.722Z,102091.97
2022-10-17T16:21:51.679Z,102094.69
2022-10-17T16:24:20.924Z,102096.22
2022-10-17T16:26:48.834Z,102093.38
2022-10-17T16:29:16.941Z,102091.03
2022-10-17T16:31:45.943Z,102103.47
2022-10-17T16:34:14.595Z,102093.72
2022-10-17T16:36:44.045Z,102104.31
2022-10-17T16:39:12.428Z,102106.47
2022-10-17T16:41:41.089Z,102103.97
2022-10-17T16:44:10.246Z,102106.16
2022-10-17T16:46:38.712Z,102115.22
2022-10-17T16:49:06.975Z,102113.03
2022-10-17T16:51:35.999Z,102124.31
2022-10-17T16:54:13.605Z,102123.56
2022-10-17T16:56:42.668Z,102140.69
2022-10-17T16:59:10.946Z,102134.63
2022-10-17T17:01:39.226Z,102145.34
2022-10-17T17:04:09.151Z,102148.69
2022-10-17T17:06:38.268Z,102132.16
2022-10-17T17:09:09.275Z,102148.25
2022-10-17T17:11:37.697Z,102137.09
2022-10-17T17:14:06.148Z,102127.72
2022-10-17T17:16:34.848Z,102142.28
2022-10-17T17:19:04.522Z,102149.75
2022-10-17T17:21:32.679Z,102159.94
2022-10-17T17:24:03.540Z,102173.63
2022-10-17T17:26:36.235Z,102170.31
2022-10-17T17:29:04.599Z,102167.03
2022-10-17T17:31:33.650Z,102170.78
2022-10-17T17:34:01.932Z,102176.81
2022-10-17T17:36:31.262Z,102175.44
2022-10-17T17:39:00.851Z,102178.34
2022-10-17T17:41:30.761Z,102185.31
2022-10-17T17:44:00.470Z,102194.63
2022-10-17T17:46:28.715Z,102168.94
2022-10-17T17:48:57.068Z,102192.06
2022-10-17T17:51:28.269Z,102198.41
2022-10-17T17:53:57.898Z,102182.50
2022-10-17T17:56:27.531Z,102182.00
2022-10-17T17:58:56.977Z,102216.94
2022-10-17T18:01:36.806Z,102200.94
2022-10-17T18:04:05.149Z,102217.81
2022-10-17T18:06:33.310Z,102212.34
2022-10-17T18:09:01.613Z,102217.50
2022-10-17T18:11:29.757Z,102214.72
2022-10-17T18:13:58.764Z,102220.38
2022-10-17T18:16:26.909Z,102224.06
2022-10-17T18:18:56.433Z,102220.56
2022-10-17T18:21:24.502Z,102227.19
2022-10-17T18:23:52.902Z,102238.19
2022-10-17T18:26:21.024Z,102239.19
2022-10-17T18:28:49.807Z,102247.19
2022-10-17T18:31:22.195Z,102250.00
2022-10-17T18:33:53.830Z,102248.63
2022-10-17T18:36:23.285Z,102257.22
2022-10-17T18:38:51.566Z,102258.19
2022-10-17T18:41:20.945Z,102243.28
2022-10-17T18:43:49.741Z,102250.16
2022-10-17T18:46:19.284Z,102254.41
2022-10-17T18:48:47.802Z,102253.97
2022-10-17T18:51:16.630Z,102272.00
2022-10-17T18:53:46.916Z,102245.41
2022-10-17T18:56:15.016Z,102252.13
2022-10-17T18:58:43.102Z,102268.91
2022-10-17T19:01:15.368Z,102281.28
2022-10-17T19:03:43.865Z,102283.19
2022-10-17T19:06:13.332Z,102301.34
2022-10-17T19:08:41.853Z,102297.53
2022-10-17T19:11:12.193Z,102298.34
2022-10-17T19:13:40.779Z,102298.59
2022-10-17T19:16:09.444Z,102290.41
2022-10-17T19:18:37.577Z,102297.75
2022-10-17T19:21:06.366Z,102308.44
2022-10-17T19:23:35.559Z,102289.81
2022-10-17T19:26:04.033Z,102300.78
2022-10-17T19:28:33.663Z,102303.28
2022-10-17T19:31:01.955Z,102302.97
2022-10-17T19:33:32.792Z,102306.03
2022-10-17T19:36:02.983Z,102293.34
2022-10-17T19:38:31.346Z,102301.22
2022-10-17T19:43:34.555Z,102305.50
2022-10-17T19:46:04.308Z,102319.81
2022-10-17T19:48:32.915Z,102321.06
2022-10-17T19:51:01.004Z,102316.22
2022-10-17T19:53:29.680Z,102312.25
2022-10-17T19:56:00.279Z,102301.25
2022-10-17T19:58:28.524Z,102332.50
2022-10-17T20:01:01.065Z,102317.91
2022-10-17T20:03:29.333Z,102339.19
2022-10-17T20:05:57.516Z,102339.69
2022-10-17T20:10:54.490Z,102342.66
2022-10-17T20:13:22.819Z,102349.19
2022-10-17T20:15:58.951Z,102352.84
2022-10-17T20:18:27.602Z,102351.53
2022-10-17T20:20:55.800Z,102354.72
2022-10-17T20:23:24.362Z,102354.72
2022-10-17T20:26:06.823Z,102360.56
2022-10-17T20:28:47.276Z,102358.88
2022-10-17T20:31:16.922Z,102361.09
2022-10-17T20:33:45.257Z,102357.94
2022-10-17T20:36:14.137Z,102367.03
2022-10-17T20:38:42.475Z,102369.94
2022-10-17T20:41:10.858Z,102365.84
2022-10-17T20:43:39.019Z,102370.72
2022-10-17T20:46:22.978Z,102382.22
2022-10-17T20:49:00.200Z,102382.81
2022-10-17T20:51:28.321Z,102397.22
2022-10-17T20:56:27.477Z,102410.09
2022-10-17T20:58:59.701Z,102419.19
2022-10-17T21:01:28.237Z,102409.13
2022-10-17T21:04:06.163Z,102410.59
2022-10-17T21:06:38.923Z,102437.00
2022-10-17T21:09:07.194Z,102430.47
2022-10-17T21:11:35.257Z,102430.72
2022-10-17T21:14:04.474Z,102427.00
2022-10-17T21:16:33.345Z,102418.72
2022-10-17T21:19:03.242Z,102440.88
2022-10-17T21:21:33.819Z,102445.47
2022-10-17T21:24:03.110Z,102451.28
2022-10-17T21:26:32.924Z,102448.63
2022-10-17T21:29:05.067Z,102451.25
2022-10-17T21:31:33.805Z,102464.81
2022-10-17T21:34:06.510Z,102458.66
2022-10-17T21:36:34.735Z,102456.72
2022-10-17T21:39:05.525Z,102449.06
2022-10-17T21:41:33.710Z,102456.09
2022-10-17T21:44:03.344Z,102472.34
2022-10-17T21:46:31.605Z,102464.31
2022-10-17T21:49:00.049Z,102473.03
2022-10-17T21:51:29.750Z,102478.63
2022-10-17T21:53:58.784Z,102469.88
2022-10-17T21:56:29.886Z,102475.22
2022-10-17T21:58:57.955Z,102480.06
2022-10-17T22:01:27.080Z,102481.50
2022-10-17T22:03:56.013Z,102474.47
2022-10-17T22:06:39.305Z,102461.84
2022-10-17T22:09:11.156Z,102480.75
2022-10-17T22:11:39.187Z,102491.72
2022-10-17T22:14:08.989Z,102484.09
2022-10-17T22:16:37.136Z,102484.09
2022-10-17T22:19:06.478Z,102485.16
2022-10-17T22:21:36.391Z,102477.53
2022-10-17T22:24:07.292Z,102474.16
2022-10-17T22:26:37.538Z,102484.34
2022-10-17T22:29:05.869Z,102484.72
2022-10-17T22:31:33.888Z,102487.25
2022-10-17T22:34:02.434Z,102501.09
2022-10-17T22:36:31.582Z,102495.97
2022-10-17T22:38:59.578Z,102497.91
2022-10-17T22:41:27.588Z,102493.78
2022-10-17T22:43:56.965Z,102490.13
2022-10-17T22:46:25.043Z,102475.28
2022-10-17T22:48:53.030Z,102502.94
2022-10-17T22:51:21.260Z,102494.66
2022-10-17T22:57:30.267Z,102500.22
2022-10-17T22:59:59.640Z,102493.19
2022-10-17T23:02:27.838Z,102500.22
2022-10-17T23:04:55.972Z,102480.19
2022-10-17T23:07:24.098Z,102504.06
2022-10-17T23:09:52.129Z,102502.34
2022-10-17T23:12:20.316Z,102506.22
2022-10-17T23:14:48.345Z,102513.25
2022-10-17T23:17:17.752Z,102513.47
2022-10-17T23:19:45.889Z,102509.19
2022-10-17T23:22:19.015Z,102508.13
2022-10-17T23:24:48.361Z,102507.06
2022-10-17T23:27:16.441Z,102512.72
2022-10-17T23:29:44.975Z,102501.97
2022-10-17T23:32:13.081Z,102486.69
2022-10-17T23:34:42.778Z,102491.88
2022-10-17T23:37:11.392Z,102514.09
2022-10-17T23:39:39.384Z,102505.59
2022-10-17T23:42:07.738Z,102512.41
2022-10-17T23:44:36.077Z,102522.19
2022-10-17T23:47:04.199Z,102506.22
2022-10-17T23:49:32.393Z,102509.50
2022-10-17T23:52:01.973Z,102517.47
2022-10-17T23:54:30.468Z,102498.16
2022-10-17T23:56:58.492Z,102513.47
2022-10-17T23:59:26.883Z,102504.97
